sensor_id;sensor_type;location;lat;lon;timestamp;P1;P2;P0
43280;PMS5003;62175;49.416;8.690;2023-04-28T00:01:52;6;5;
43280;PMS5003;62175;49.416;8.690;2023-04-28T00:04:19;5;5;
43280;PMS5003;62175;49.416;8.690;2023-04-28T00:06:46;5;5;
43280;PMS5003;62175;49.416;8.690;2023-04-28T00:09:13;5;5;
43280;PMS5003;62175;49.416;8.690;2023-04-28T00:11:43;6;6;
43280;PMS5003;62175;49.416;8.690;2023-04-28T00:14:10;7;6;
43280;PMS5003;62175;49.416;8.690;2023-04-28T00:16:37;3;3;
43280;PMS5003;62175;49.416;8.690;2023-04-28T00:19:04;8;7;
43280;PMS5003;62175;49.416;8.690;2023-04-28T00:21:31;8;7;
43280;PMS5003;62175;49.416;8.690;2023-04-28T00:23:58;6;6;
43280;PMS5003;62175;49.416;8.690;2023-04-28T00:26:25;7;7;
43280;PMS5003;62175;49.416;8.690;2023-04-28T00:28:52;4;4;
43280;PMS5003;62175;49.416;8.690;2023-04-28T00:31:19;6;6;
43280;PMS5003;62175;49.416;8.690;2023-04-28T00:33:46;9;7;
43280;PMS5003;62175;49.416;8.690;2023-04-28T00:36:13;7;7;
43280;PMS5003;62175;49.416;8.690;2023-04-28T00:38:40;8;6;
43280;PMS5003;62175;49.416;8.690;2023-04-28T00:41:08;6;6;
43280;PMS5003;62175;49.416;8.690;2023-04-28T00:43:43;6;6;
43280;PMS5003;62175;49.416;8.690;2023-04-28T00:46:12;8;7;
43280;PMS5003;62175;49.416;8.690;2023-04-28T00:48:46;6;6;
43280;PMS5003;62175;49.416;8.690;2023-04-28T00:51:14;8;7;
43280;PMS5003;62175;49.416;8.690;2023-04-28T00:53:41;8;6;
43280;PMS5003;62175;49.416;8.690;2023-04-28T00:56:08;8;7;
43280;PMS5003;62175;49.416;8.690;2023-04-28T00:58:36;7;7;
43280;PMS5003;62175;49.416;8.690;2023-04-28T01:01:04;7;6;
43280;PMS5003;62175;49.416;8.690;2023-04-28T01:03:31;8;8;
43280;PMS5003;62175;49.416;8.690;2023-04-28T01:06:00;5;5;
43280;PMS5003;62175;49.416;8.690;2023-04-28T01:08:29;7;7;
43280;PMS5003;62175;49.416;8.690;2023-04-28T01:10:57;11;10;
43280;PMS5003;62175;49.416;8.690;2023-04-28T01:13:24;7;6;
43280;PMS5003;62175;49.416;8.690;2023-04-28T01:15:51;10;10;
43280;PMS5003;62175;49.416;8.690;2023-04-28T01:18:18;7;7;
43280;PMS5003;62175;49.416;8.690;2023-04-28T01:20:45;6;6;
43280;PMS5003;62175;49.416;8.690;2023-04-28T01:23:12;5;5;
43280;PMS5003;62175;49.416;8.690;2023-04-28T01:25:40;6;6;
43280;PMS5003;62175;49.416;8.690;2023-04-28T01:28:08;7;7;
43280;PMS5003;62175;49.416;8.690;2023-04-28T01:30:36;6;6;
43280;PMS5003;62175;49.416;8.690;2023-04-28T01:33:03;6;6;
43280;PMS5003;62175;49.416;8.690;2023-04-28T01:35:30;6;6;
43280;PMS5003;62175;49.416;8.690;2023-04-28T01:37:57;7;7;
43280;PMS5003;62175;49.416;8.690;2023-04-28T01:40:24;5;4;
43280;PMS5003;62175;49.416;8.690;2023-04-28T01:42:51;4;4;
43280;PMS5003;62175;49.416;8.690;2023-04-28T01:45:19;6;5;
43280;PMS5003;62175;49.416;8.690;2023-04-28T01:47:46;6;6;
43280;PMS5003;62175;49.416;8.690;2023-04-28T01:50:13;6;5;
43280;PMS5003;62175;49.416;8.690;2023-04-28T01:52:40;5;5;
43280;PMS5003;62175;49.416;8.690;2023-04-28T01:55:07;5;4;
43280;PMS5003;62175;49.416;8.690;2023-04-28T01:57:34;7;7;
43280;PMS5003;62175;49.416;8.690;2023-04-28T02:00:01;5;5;
43280;PMS5003;62175;49.416;8.690;2023-04-28T02:02:28;7;7;
43280;PMS5003;62175;49.416;8.690;2023-04-28T02:04:55;8;7;
43280;PMS5003;62175;49.416;8.690;2023-04-28T02:07:22;7;7;
43280;PMS5003;62175;49.416;8.690;2023-04-28T02:09:49;7;7;
43280;PMS5003;62175;49.416;8.690;2023-04-28T02:12:16;9;8;
43280;PMS5003;62175;49.416;8.690;2023-04-28T02:14:43;5;5;
43280;PMS5003;62175;49.416;8.690;2023-04-28T02:17:11;6;6;
43280;PMS5003;62175;49.416;8.690;2023-04-28T02:19:38;7;7;
43280;PMS5003;62175;49.416;8.690;2023-04-28T02:22:05;7;6;
43280;PMS5003;62175;49.416;8.690;2023-04-28T02:24:33;5;5;
43280;PMS5003;62175;49.416;8.690;2023-04-28T02:27:01;5;5;
43280;PMS5003;62175;49.416;8.690;2023-04-28T02:29:29;5;5;
43280;PMS5003;62175;49.416;8.690;2023-04-28T02:31:56;7;7;
43280;PMS5003;62175;49.416;8.690;2023-04-28T02:34:23;7;7;
43280;PMS5003;62175;49.416;8.690;2023-04-28T02:36:50;8;7;
43280;PMS5003;62175;49.416;8.690;2023-04-28T02:39:17;8;8;
43280;PMS5003;62175;49.416;8.690;2023-04-28T02:41:44;7;6;
43280;PMS5003;62175;49.416;8.690;2023-04-28T02:44:11;8;7;
43280;PMS5003;62175;49.416;8.690;2023-04-28T02:46:38;6;6;
43280;PMS5003;62175;49.416;8.690;2023-04-28T02:49:05;5;5;
43280;PMS5003;62175;49.416;8.690;2023-04-28T02:51:32;7;7;
43280;PMS5003;62175;49.416;8.690;2023-04-28T02:53:59;9;8;
43280;PMS5003;62175;49.416;8.690;2023-04-28T02:56:26;8;8;
43280;PMS5003;62175;49.416;8.690;2023-04-28T02:58:53;7;7;
43280;PMS5003;62175;49.416;8.690;2023-04-28T03:01:21;7;7;
43280;PMS5003;62175;49.416;8.690;2023-04-28T03:03:47;8;7;
43280;PMS5003;62175;49.416;8.690;2023-04-28T03:06:14;9;9;
43280;PMS5003;62175;49.416;8.690;2023-04-28T03:08:41;5;5;
43280;PMS5003;62175;49.416;8.690;2023-04-28T03:11:08;6;5;
43280;PMS5003;62175;49.416;8.690;2023-04-28T03:13:35;8;7;
43280;PMS5003;62175;49.416;8.690;2023-04-28T03:16:03;6;6;
43280;PMS5003;62175;49.416;8.690;2023-04-28T03:18:31;9;9;
43280;PMS5003;62175;49.416;8.690;2023-04-28T03:20:58;7;6;
43280;PMS5003;62175;49.416;8.690;2023-04-28T03:23:25;7;7;
43280;PMS5003;62175;49.416;8.690;2023-04-28T03:25:52;9;8;
43280;PMS5003;62175;49.416;8.690;2023-04-28T03:28:19;8;7;
43280;PMS5003;62175;49.416;8.690;2023-04-28T03:30:46;8;8;
43280;PMS5003;62175;49.416;8.690;2023-04-28T03:33:13;9;9;
43280;PMS5003;62175;49.416;8.690;2023-04-28T03:35:40;8;7;
43280;PMS5003;62175;49.416;8.690;2023-04-28T03:38:07;8;7;
43280;PMS5003;62175;49.416;8.690;2023-04-28T03:40:34;6;6;
43280;PMS5003;62175;49.416;8.690;2023-04-28T03:43:02;8;7;
43280;PMS5003;62175;49.416;8.690;2023-04-28T03:45:29;8;8;
43280;PMS5003;62175;49.416;8.690;2023-04-28T03:47:56;8;8;
43280;PMS5003;62175;49.416;8.690;2023-04-28T03:50:23;8;7;
43280;PMS5003;62175;49.416;8.690;2023-04-28T03:52:50;9;8;
43280;PMS5003;62175;49.416;8.690;2023-04-28T03:55:17;9;8;
43280;PMS5003;62175;49.416;8.690;2023-04-28T03:57:44;8;8;
43280;PMS5003;62175;49.416;8.690;2023-04-28T04:00:12;11;9;
43280;PMS5003;62175;49.416;8.690;2023-04-28T04:02:39;8;7;
43280;PMS5003;62175;49.416;8.690;2023-04-28T04:05:07;9;8;
43280;PMS5003;62175;49.416;8.690;2023-04-28T04:07:34;8;8;
43280;PMS5003;62175;49.416;8.690;2023-04-28T04:10:01;8;7;
43280;PMS5003;62175;49.416;8.690;2023-04-28T04:12:28;9;8;
43280;PMS5003;62175;49.416;8.690;2023-04-28T04:14:55;8;7;
43280;PMS5003;62175;49.416;8.690;2023-04-28T04:17:21;8;8;
43280;PMS5003;62175;49.416;8.690;2023-04-28T04:19:49;10;9;
43280;PMS5003;62175;49.416;8.690;2023-04-28T04:22:16;9;7;
43280;PMS5003;62175;49.416;8.690;2023-04-28T04:24:43;9;8;
43280;PMS5003;62175;49.416;8.690;2023-04-28T04:27:10;11;10;
43280;PMS5003;62175;49.416;8.690;2023-04-28T04:29:37;10;10;
43280;PMS5003;62175;49.416;8.690;2023-04-28T04:32:04;9;8;
43280;PMS5003;62175;49.416;8.690;2023-04-28T04:34:31;11;10;
43280;PMS5003;62175;49.416;8.690;2023-04-28T04:36:59;11;10;
43280;PMS5003;62175;49.416;8.690;2023-04-28T04:39:26;7;7;
43280;PMS5003;62175;49.416;8.690;2023-04-28T04:41:53;11;10;
43280;PMS5003;62175;49.416;8.690;2023-04-28T04:44:20;13;12;
43280;PMS5003;62175;49.416;8.690;2023-04-28T04:46:47;7;7;
43280;PMS5003;62175;49.416;8.690;2023-04-28T04:49:14;9;9;
43280;PMS5003;62175;49.416;8.690;2023-04-28T04:51:42;9;9;
43280;PMS5003;62175;49.416;8.690;2023-04-28T04:54:09;13;11;
43280;PMS5003;62175;49.416;8.690;2023-04-28T04:56:35;16;13;
43280;PMS5003;62175;49.416;8.690;2023-04-28T04:59:03;11;10;
43280;PMS5003;62175;49.416;8.690;2023-04-28T05:01:30;9;9;
43280;PMS5003;62175;49.416;8.690;2023-04-28T05:03:57;9;9;
43280;PMS5003;62175;49.416;8.690;2023-04-28T05:06:24;11;9;
43280;PMS5003;62175;49.416;8.690;2023-04-28T05:08:51;9;9;
43280;PMS5003;62175;49.416;8.690;2023-04-28T05:11:18;12;11;
43280;PMS5003;62175;49.416;8.690;2023-04-28T05:13:45;7;7;
43280;PMS5003;62175;49.416;8.690;2023-04-28T05:16:12;13;10;
43280;PMS5003;62175;49.416;8.690;2023-04-28T05:18:39;13;10;
43280;PMS5003;62175;49.416;8.690;2023-04-28T05:21:06;10;9;
43280;PMS5003;62175;49.416;8.690;2023-04-28T05:23:34;11;11;
43280;PMS5003;62175;49.416;8.690;2023-04-28T05:26:01;9;9;
43280;PMS5003;62175;49.416;8.690;2023-04-28T05:28:28;10;9;
43280;PMS5003;62175;49.416;8.690;2023-04-28T05:30:55;13;12;
43280;PMS5003;62175;49.416;8.690;2023-04-28T05:33:22;12;12;
43280;PMS5003;62175;49.416;8.690;2023-04-28T05:35:49;12;11;
43280;PMS5003;62175;49.416;8.690;2023-04-28T05:38:16;15;13;
43280;PMS5003;62175;49.416;8.690;2023-04-28T05:40:43;11;11;
43280;PMS5003;62175;49.416;8.690;2023-04-28T05:43:10;14;14;
43280;PMS5003;62175;49.416;8.690;2023-04-28T05:45:37;11;11;
43280;PMS5003;62175;49.416;8.690;2023-04-28T05:48:04;12;12;
43280;PMS5003;62175;49.416;8.690;2023-04-28T05:50:31;12;11;
43280;PMS5003;62175;49.416;8.690;2023-04-28T05:52:58;12;11;
43280;PMS5003;62175;49.416;8.690;2023-04-28T05:55:26;12;10;
43280;PMS5003;62175;49.416;8.690;2023-04-28T05:57:53;9;9;
43280;PMS5003;62175;49.416;8.690;2023-04-28T06:00:20;10;10;
43280;PMS5003;62175;49.416;8.690;2023-04-28T06:02:47;14;11;
43280;PMS5003;62175;49.416;8.690;2023-04-28T06:05:14;10;10;
43280;PMS5003;62175;49.416;8.690;2023-04-28T06:07:41;12;10;
43280;PMS5003;62175;49.416;8.690;2023-04-28T06:10:09;12;11;
43280;PMS5003;62175;49.416;8.690;2023-04-28T06:12:36;12;10;
43280;PMS5003;62175;49.416;8.690;2023-04-28T06:15:04;11;11;
43280;PMS5003;62175;49.416;8.690;2023-04-28T06:17:31;11;11;
43280;PMS5003;62175;49.416;8.690;2023-04-28T06:19:58;13;12;
43280;PMS5003;62175;49.416;8.690;2023-04-28T06:22:25;14;14;
43280;PMS5003;62175;49.416;8.690;2023-04-28T06:24:52;12;10;
43280;PMS5003;62175;49.416;8.690;2023-04-28T06:27:19;16;14;
43280;PMS5003;62175;49.416;8.690;2023-04-28T06:29:46;14;14;
43280;PMS5003;62175;49.416;8.690;2023-04-28T06:32:14;15;14;
43280;PMS5003;62175;49.416;8.690;2023-04-28T06:34:41;15;14;
43280;PMS5003;62175;49.416;8.690;2023-04-28T06:37:08;13;13;
43280;PMS5003;62175;49.416;8.690;2023-04-28T06:39:35;12;11;
43280;PMS5003;62175;49.416;8.690;2023-04-28T06:42:02;15;13;
43280;PMS5003;62175;49.416;8.690;2023-04-28T06:44:29;13;12;
43280;PMS5003;62175;49.416;8.690;2023-04-28T06:46:56;14;12;
43280;PMS5003;62175;49.416;8.690;2023-04-28T06:49:23;17;15;
43280;PMS5003;62175;49.416;8.690;2023-04-28T06:51:50;16;14;
43280;PMS5003;62175;49.416;8.690;2023-04-28T06:54:19;18;17;
43280;PMS5003;62175;49.416;8.690;2023-04-28T06:56:46;14;13;
43280;PMS5003;62175;49.416;8.690;2023-04-28T06:59:12;13;12;
43280;PMS5003;62175;49.416;8.690;2023-04-28T07:01:40;13;13;
43280;PMS5003;62175;49.416;8.690;2023-04-28T07:04:07;15;12;
43280;PMS5003;62175;49.416;8.690;2023-04-28T07:06:34;16;16;
43280;PMS5003;62175;49.416;8.690;2023-04-28T07:09:01;13;13;
43280;PMS5003;62175;49.416;8.690;2023-04-28T07:11:28;12;12;
43280;PMS5003;62175;49.416;8.690;2023-04-28T07:13:56;11;10;
43280;PMS5003;62175;49.416;8.690;2023-04-28T07:16:22;15;12;
43280;PMS5003;62175;49.416;8.690;2023-04-28T07:18:49;13;11;
43280;PMS5003;62175;49.416;8.690;2023-04-28T07:21:16;13;11;
43280;PMS5003;62175;49.416;8.690;2023-04-28T07:23:43;12;12;
43280;PMS5003;62175;49.416;8.690;2023-04-28T07:26:11;10;10;
43280;PMS5003;62175;49.416;8.690;2023-04-28T07:28:38;12;11;
43280;PMS5003;62175;49.416;8.690;2023-04-28T07:31:05;11;11;
43280;PMS5003;62175;49.416;8.690;2023-04-28T07:33:32;12;12;
43280;PMS5003;62175;49.416;8.690;2023-04-28T07:35:59;12;12;
43280;PMS5003;62175;49.416;8.690;2023-04-28T07:38:26;11;11;
43280;PMS5003;62175;49.416;8.690;2023-04-28T07:40:53;12;10;
43280;PMS5003;62175;49.416;8.690;2023-04-28T07:43:20;11;10;
43280;PMS5003;62175;49.416;8.690;2023-04-28T07:45:48;15;13;
43280;PMS5003;62175;49.416;8.690;2023-04-28T07:48:15;11;11;
43280;PMS5003;62175;49.416;8.690;2023-04-28T07:50:42;11;10;
43280;PMS5003;62175;49.416;8.690;2023-04-28T07:53:09;11;11;
43280;PMS5003;62175;49.416;8.690;2023-04-28T07:55:36;10;10;
43280;PMS5003;62175;49.416;8.690;2023-04-28T07:58:03;10;9;
43280;PMS5003;62175;49.416;8.690;2023-04-28T08:00:30;10;10;
43280;PMS5003;62175;49.416;8.690;2023-04-28T08:02:57;11;11;
43280;PMS5003;62175;49.416;8.690;2023-04-28T08:05:24;11;11;
43280;PMS5003;62175;49.416;8.690;2023-04-28T08:07:51;10;10;
43280;PMS5003;62175;49.416;8.690;2023-04-28T08:10:18;12;11;
43280;PMS5003;62175;49.416;8.690;2023-04-28T08:12:45;10;10;
43280;PMS5003;62175;49.416;8.690;2023-04-28T08:15:12;9;8;
43280;PMS5003;62175;49.416;8.690;2023-04-28T08:17:40;9;9;
43280;PMS5003;62175;49.416;8.690;2023-04-28T08:20:07;10;10;
43280;PMS5003;62175;49.416;8.690;2023-04-28T08:22:35;7;7;
43280;PMS5003;62175;49.416;8.690;2023-04-28T08:25:02;9;8;
43280;PMS5003;62175;49.416;8.690;2023-04-28T08:27:30;9;9;
43280;PMS5003;62175;49.416;8.690;2023-04-28T08:29:57;7;7;
43280;PMS5003;62175;49.416;8.690;2023-04-28T08:32:24;6;6;
43280;PMS5003;62175;49.416;8.690;2023-04-28T08:34:51;7;6;
43280;PMS5003;62175;49.416;8.690;2023-04-28T08:37:18;6;6;
43280;PMS5003;62175;49.416;8.690;2023-04-28T08:39:45;5;5;
43280;PMS5003;62175;49.416;8.690;2023-04-28T08:42:12;8;8;
43280;PMS5003;62175;49.416;8.690;2023-04-28T08:44:39;9;9;
43280;PMS5003;62175;49.416;8.690;2023-04-28T08:47:11;5;5;
43280;PMS5003;62175;49.416;8.690;2023-04-28T08:49:40;7;7;
43280;PMS5003;62175;49.416;8.690;2023-04-28T08:52:10;7;7;
43280;PMS5003;62175;49.416;8.690;2023-04-28T08:54:42;5;5;
43280;PMS5003;62175;49.416;8.690;2023-04-28T08:57:12;6;6;
43280;PMS5003;62175;49.416;8.690;2023-04-28T08:59:40;7;7;
43280;PMS5003;62175;49.416;8.690;2023-04-28T09:02:08;5;5;
43280;PMS5003;62175;49.416;8.690;2023-04-28T09:04:35;6;6;
43280;PMS5003;62175;49.416;8.690;2023-04-28T09:07:03;5;5;
43280;PMS5003;62175;49.416;8.690;2023-04-28T09:10:44;6;6;
43280;PMS5003;62175;49.416;8.690;2023-04-28T09:13:11;6;6;
43280;PMS5003;62175;49.416;8.690;2023-04-28T09:15:51;6;5;
43280;PMS5003;62175;49.416;8.690;2023-04-28T09:18:27;7;7;
43280;PMS5003;62175;49.416;8.690;2023-04-28T09:21:01;7;6;
43280;PMS5003;62175;49.416;8.690;2023-04-28T09:23:29;6;6;
43280;PMS5003;62175;49.416;8.690;2023-04-28T09:25:58;6;6;
43280;PMS5003;62175;49.416;8.690;2023-04-28T09:28:26;7;6;
43280;PMS5003;62175;49.416;8.690;2023-04-28T09:30:53;6;6;
43280;PMS5003;62175;49.416;8.690;2023-04-28T09:33:20;10;9;
43280;PMS5003;62175;49.416;8.690;2023-04-28T09:35:47;7;7;
43280;PMS5003;62175;49.416;8.690;2023-04-28T09:38:15;6;6;
43280;PMS5003;62175;49.416;8.690;2023-04-28T09:40:51;8;7;
43280;PMS5003;62175;49.416;8.690;2023-04-28T09:43:22;6;6;
43280;PMS5003;62175;49.416;8.690;2023-04-28T09:45:50;8;8;
43280;PMS5003;62175;49.416;8.690;2023-04-28T09:48:25;7;6;
43280;PMS5003;62175;49.416;8.690;2023-04-28T09:50:54;10;9;
43280;PMS5003;62175;49.416;8.690;2023-04-28T09:53:22;7;6;
43280;PMS5003;62175;49.416;8.690;2023-04-28T09:55:50;7;7;
43280;PMS5003;62175;49.416;8.690;2023-04-28T09:58:18;9;8;
43280;PMS5003;62175;49.416;8.690;2023-04-28T10:00:46;9;9;
43280;PMS5003;62175;49.416;8.690;2023-04-28T10:03:20;11;11;
43280;PMS5003;62175;49.416;8.690;2023-04-28T10:05:49;8;8;
43280;PMS5003;62175;49.416;8.690;2023-04-28T10:08:17;9;9;
43280;PMS5003;62175;49.416;8.690;2023-04-28T10:10:45;15;12;
43280;PMS5003;62175;49.416;8.690;2023-04-28T10:13:14;11;11;
43280;PMS5003;62175;49.416;8.690;2023-04-28T10:15:42;14;14;
43280;PMS5003;62175;49.416;8.690;2023-04-28T10:18:10;14;13;
43280;PMS5003;62175;49.416;8.690;2023-04-28T10:20:38;13;11;
43280;PMS5003;62175;49.416;8.690;2023-04-28T10:26:10;13;12;
43280;PMS5003;62175;49.416;8.690;2023-04-28T10:28:43;14;13;
43280;PMS5003;62175;49.416;8.690;2023-04-28T10:31:12;9;9;
43280;PMS5003;62175;49.416;8.690;2023-04-28T10:33:40;8;8;
43280;PMS5003;62175;49.416;8.690;2023-04-28T10:36:08;13;13;
43280;PMS5003;62175;49.416;8.690;2023-04-28T10:38:36;12;12;
43280;PMS5003;62175;49.416;8.690;2023-04-28T10:41:34;13;11;
43280;PMS5003;62175;49.416;8.690;2023-04-28T10:44:15;9;9;
43280;PMS5003;62175;49.416;8.690;2023-04-28T10:47:07;12;12;
43280;PMS5003;62175;49.416;8.690;2023-04-28T10:50:08;12;11;
43280;PMS5003;62175;49.416;8.690;2023-04-28T10:52:51;12;12;
43280;PMS5003;62175;49.416;8.690;2023-04-28T10:55:34;13;13;
43280;PMS5003;62175;49.416;8.690;2023-04-28T10:58:33;14;14;
43280;PMS5003;62175;49.416;8.690;2023-04-28T11:01:33;11;10;
43280;PMS5003;62175;49.416;8.690;2023-04-28T11:04:05;13;12;
43280;PMS5003;62175;49.416;8.690;2023-04-28T11:06:34;10;10;
43280;PMS5003;62175;49.416;8.690;2023-04-28T11:09:03;10;9;
43280;PMS5003;62175;49.416;8.690;2023-04-28T11:12:12;14;12;
43280;PMS5003;62175;49.416;8.690;2023-04-28T11:14:40;11;11;
43280;PMS5003;62175;49.416;8.690;2023-04-28T11:17:08;13;12;
43280;PMS5003;62175;49.416;8.690;2023-04-28T11:19:35;12;12;
43280;PMS5003;62175;49.416;8.690;2023-04-28T11:22:04;10;9;
43280;PMS5003;62175;49.416;8.690;2023-04-28T11:24:32;11;10;
43280;PMS5003;62175;49.416;8.690;2023-04-28T11:26:59;13;12;
43280;PMS5003;62175;49.416;8.690;2023-04-28T11:29:30;10;10;
43280;PMS5003;62175;49.416;8.690;2023-04-28T11:31:58;11;11;
43280;PMS5003;62175;49.416;8.690;2023-04-28T11:34:26;11;11;
43280;PMS5003;62175;49.416;8.690;2023-04-28T11:36:54;14;11;
43280;PMS5003;62175;49.416;8.690;2023-04-28T11:39:25;10;10;
43280;PMS5003;62175;49.416;8.690;2023-04-28T11:41:54;9;9;
43280;PMS5003;62175;49.416;8.690;2023-04-28T11:44:22;11;11;
43280;PMS5003;62175;49.416;8.690;2023-04-28T11:46:51;11;11;
43280;PMS5003;62175;49.416;8.690;2023-04-28T11:49:19;9;9;
43280;PMS5003;62175;49.416;8.690;2023-04-28T11:51:47;12;12;
43280;PMS5003;62175;49.416;8.690;2023-04-28T11:54:19;12;11;
43280;PMS5003;62175;49.416;8.690;2023-04-28T11:56:47;13;12;
43280;PMS5003;62175;49.416;8.690;2023-04-28T11:59:14;13;11;
43280;PMS5003;62175;49.416;8.690;2023-04-28T12:01:43;11;10;
43280;PMS5003;62175;49.416;8.690;2023-04-28T12:04:11;10;10;
43280;PMS5003;62175;49.416;8.690;2023-04-28T12:06:39;11;10;
43280;PMS5003;62175;49.416;8.690;2023-04-28T12:09:15;10;10;
43280;PMS5003;62175;49.416;8.690;2023-04-28T12:11:59;10;10;
43280;PMS5003;62175;49.416;8.690;2023-04-28T12:14:27;12;11;
43280;PMS5003;62175;49.416;8.690;2023-04-28T12:16:55;16;16;
43280;PMS5003;62175;49.416;8.690;2023-04-28T12:19:22;15;13;
43280;PMS5003;62175;49.416;8.690;2023-04-28T12:22:22;12;11;
43280;PMS5003;62175;49.416;8.690;2023-04-28T12:25:06;11;11;
43280;PMS5003;62175;49.416;8.690;2023-04-28T12:27:35;15;12;
43280;PMS5003;62175;49.416;8.690;2023-04-28T12:30:04;10;9;
43280;PMS5003;62175;49.416;8.690;2023-04-28T12:32:57;10;10;
43280;PMS5003;62175;49.416;8.690;2023-04-28T12:35:25;9;9;
43280;PMS5003;62175;49.416;8.690;2023-04-28T12:37:53;13;11;
43280;PMS5003;62175;49.416;8.690;2023-04-28T12:40:21;10;10;
43280;PMS5003;62175;49.416;8.690;2023-04-28T12:42:48;8;8;
43280;PMS5003;62175;49.416;8.690;2023-04-28T12:45:15;11;10;
43280;PMS5003;62175;49.416;8.690;2023-04-28T12:47:42;13;11;
43280;PMS5003;62175;49.416;8.690;2023-04-28T12:50:10;11;11;
43280;PMS5003;62175;49.416;8.690;2023-04-28T12:52:37;10;10;
43280;PMS5003;62175;49.416;8.690;2023-04-28T12:55:04;7;7;
43280;PMS5003;62175;49.416;8.690;2023-04-28T12:57:32;9;9;
43280;PMS5003;62175;49.416;8.690;2023-04-28T12:59:59;9;8;
43280;PMS5003;62175;49.416;8.690;2023-04-28T13:02:26;7;7;
43280;PMS5003;62175;49.416;8.690;2023-04-28T13:04:53;7;7;
43280;PMS5003;62175;49.416;8.690;2023-04-28T13:07:20;12;8;
43280;PMS5003;62175;49.416;8.690;2023-04-28T13:09:47;6;6;
43280;PMS5003;62175;49.416;8.690;2023-04-28T13:12:15;11;9;
43280;PMS5003;62175;49.416;8.690;2023-04-28T13:14:42;10;9;
43280;PMS5003;62175;49.416;8.690;2023-04-28T13:17:09;9;9;
43280;PMS5003;62175;49.416;8.690;2023-04-28T13:19:37;8;7;
43280;PMS5003;62175;49.416;8.690;2023-04-28T13:22:04;10;9;
43280;PMS5003;62175;49.416;8.690;2023-04-28T13:24:31;10;9;
43280;PMS5003;62175;49.416;8.690;2023-04-28T13:26:58;8;8;
43280;PMS5003;62175;49.416;8.690;2023-04-28T13:29:25;8;8;
43280;PMS5003;62175;49.416;8.690;2023-04-28T13:31:53;17;14;
43280;PMS5003;62175;49.416;8.690;2023-04-28T13:34:20;8;8;
43280;PMS5003;62175;49.416;8.690;2023-04-28T13:36:47;8;7;
43280;PMS5003;62175;49.416;8.690;2023-04-28T13:39:14;7;7;
43280;PMS5003;62175;49.416;8.690;2023-04-28T13:41:41;10;9;
43280;PMS5003;62175;49.416;8.690;2023-04-28T13:44:08;12;12;
43280;PMS5003;62175;49.416;8.690;2023-04-28T13:46:35;14;13;
43280;PMS5003;62175;49.416;8.690;2023-04-28T13:49:02;14;13;
43280;PMS5003;62175;49.416;8.690;2023-04-28T13:51:29;12;11;
43280;PMS5003;62175;49.416;8.690;2023-04-28T13:53:56;12;12;
43280;PMS5003;62175;49.416;8.690;2023-04-28T13:56:23;9;9;
43280;PMS5003;62175;49.416;8.690;2023-04-28T13:58:51;8;8;
43280;PMS5003;62175;49.416;8.690;2023-04-28T14:01:18;8;8;
43280;PMS5003;62175;49.416;8.690;2023-04-28T14:03:45;9;7;
43280;PMS5003;62175;49.416;8.690;2023-04-28T14:06:12;6;6;
43280;PMS5003;62175;49.416;8.690;2023-04-28T14:08:39;7;7;
43280;PMS5003;62175;49.416;8.690;2023-04-28T14:11:06;7;7;
43280;PMS5003;62175;49.416;8.690;2023-04-28T14:13:33;8;8;
43280;PMS5003;62175;49.416;8.690;2023-04-28T14:16:00;9;8;
43280;PMS5003;62175;49.416;8.690;2023-04-28T14:18:28;6;6;
43280;PMS5003;62175;49.416;8.690;2023-04-28T14:20:55;7;7;
43280;PMS5003;62175;49.416;8.690;2023-04-28T14:23:22;6;5;
43280;PMS5003;62175;49.416;8.690;2023-04-28T14:25:49;8;6;
43280;PMS5003;62175;49.416;8.690;2023-04-28T14:28:17;8;7;
43280;PMS5003;62175;49.416;8.690;2023-04-28T14:30:45;6;6;
43280;PMS5003;62175;49.416;8.690;2023-04-28T14:33:12;7;7;
43280;PMS5003;62175;49.416;8.690;2023-04-28T14:35:39;6;6;
43280;PMS5003;62175;49.416;8.690;2023-04-28T14:38:06;6;6;
43280;PMS5003;62175;49.416;8.690;2023-04-28T14:40:33;13;8;
43280;PMS5003;62175;49.416;8.690;2023-04-28T15:44:38;2;1;
43280;PMS5003;62175;49.416;8.690;2023-04-28T15:47:05;4;3;
43280;PMS5003;62175;49.416;8.690;2023-04-28T15:49:32;2;2;
43280;PMS5003;62175;49.416;8.690;2023-04-28T15:51:59;2;2;
43280;PMS5003;62175;49.416;8.690;2023-04-28T15:54:27;1;1;
43280;PMS5003;62175;49.416;8.690;2023-04-28T15:56:54;3;3;
43280;PMS5003;62175;49.416;8.690;2023-04-28T15:59:22;1;1;
43280;PMS5003;62175;49.416;8.690;2023-04-28T16:01:49;3;3;
43280;PMS5003;62175;49.416;8.690;2023-04-28T16:04:16;2;2;
43280;PMS5003;62175;49.416;8.690;2023-04-28T16:06:43;1;1;
43280;PMS5003;62175;49.416;8.690;2023-04-28T16:09:10;2;2;
43280;PMS5003;62175;49.416;8.690;2023-04-28T16:11:37;3;2;
43280;PMS5003;62175;49.416;8.690;2023-04-28T16:14:04;3;3;
43280;PMS5003;62175;49.416;8.690;2023-04-28T16:16:31;4;3;
43280;PMS5003;62175;49.416;8.690;2023-04-28T16:18:58;3;3;
43280;PMS5003;62175;49.416;8.690;2023-04-28T16:21:25;1;1;
43280;PMS5003;62175;49.416;8.690;2023-04-28T16:23:52;5;4;
43280;PMS5003;62175;49.416;8.690;2023-04-28T16:26:19;3;3;
43280;PMS5003;62175;49.416;8.690;2023-04-28T16:28:46;2;1;
43280;PMS5003;62175;49.416;8.690;2023-04-28T16:31:13;3;3;
43280;PMS5003;62175;49.416;8.690;2023-04-28T16:33:40;4;3;
43280;PMS5003;62175;49.416;8.690;2023-04-28T16:36:07;3;3;
43280;PMS5003;62175;49.416;8.690;2023-04-28T16:38:34;1;1;
43280;PMS5003;62175;49.416;8.690;2023-04-28T16:41:01;2;2;
43280;PMS5003;62175;49.416;8.690;2023-04-28T16:43:29;2;2;
43280;PMS5003;62175;49.416;8.690;2023-04-28T16:45:56;2;2;
43280;PMS5003;62175;49.416;8.690;2023-04-28T16:48:23;1;1;
43280;PMS5003;62175;49.416;8.690;2023-04-28T16:50:52;2;2;
43280;PMS5003;62175;49.416;8.690;2023-04-28T16:53:19;1;1;
43280;PMS5003;62175;49.416;8.690;2023-04-28T16:55:46;2;2;
43280;PMS5003;62175;49.416;8.690;2023-04-28T16:58:14;2;2;
43280;PMS5003;62175;49.416;8.690;2023-04-28T17:00:41;3;3;
43280;PMS5003;62175;49.416;8.690;2023-04-28T17:03:08;3;3;
43280;PMS5003;62175;49.416;8.690;2023-04-28T17:05:35;3;3;
43280;PMS5003;62175;49.416;8.690;2023-04-28T17:08:02;3;3;
43280;PMS5003;62175;49.416;8.690;2023-04-28T17:10:29;3;3;
43280;PMS5003;62175;49.416;8.690;2023-04-28T17:12:56;1;1;
43280;PMS5003;62175;49.416;8.690;2023-04-28T17:15:23;3;3;
43280;PMS5003;62175;49.416;8.690;2023-04-28T17:17:50;2;2;
43280;PMS5003;62175;49.416;8.690;2023-04-28T17:20:18;3;3;
43280;PMS5003;62175;49.416;8.690;2023-04-28T17:22:45;2;2;
43280;PMS5003;62175;49.416;8.690;2023-04-28T17:25:13;2;2;
43280;PMS5003;62175;49.416;8.690;2023-04-28T17:27:40;2;2;
43280;PMS5003;62175;49.416;8.690;2023-04-28T17:30:08;4;4;
43280;PMS5003;62175;49.416;8.690;2023-04-28T17:32:36;2;2;
43280;PMS5003;62175;49.416;8.690;2023-04-28T17:35:03;5;4;
43280;PMS5003;62175;49.416;8.690;2023-04-28T17:37:31;3;3;
43280;PMS5003;62175;49.416;8.690;2023-04-28T17:39:59;2;2;
43280;PMS5003;62175;49.416;8.690;2023-04-28T17:42:27;2;2;
43280;PMS5003;62175;49.416;8.690;2023-04-28T17:44:54;1;1;
43280;PMS5003;62175;49.416;8.690;2023-04-28T17:47:21;3;3;
43280;PMS5003;62175;49.416;8.690;2023-04-28T17:49:48;3;3;
43280;PMS5003;62175;49.416;8.690;2023-04-28T17:52:15;3;3;